Time;durP1;ratioP1;P1;durP2;ratioP2;P2;SDS_P1;SDS_P2;PMS_P1;PMS_P2;Temp;Humidity;BMP_temperature;BMP_pressure;BME280_temperature;BME280_humidity;BME280_pressure;Samples;Min_cycle;Max_cycle;Signal;HPM_P1;HPM_P2
2022/11/27 00:02:24;;;;;;;18.10;6.95;;;5.70;99.90;;;;;;5093208;28;20048;-79
2022/11/27 00:04:49;;;;;;;20.90;7.35;;;5.60;99.90;;;;;;5094542;28;20491;-80
2022/11/27 00:07:15;;;;;;;18.05;6.53;;;5.60;99.90;;;;;;5094535;28;20040;-78
2022/11/27 00:09:40;;;;;;;16.00;6.70;;;5.60;99.90;;;;;;5094615;28;20490;-79
2022/11/27 00:12:06;;;;;;;16.98;7.00;;;5.60;99.90;;;;;;5094414;28;20089;-79
2022/11/27 00:14:31;;;;;;;19.60;7.10;;;5.60;99.90;;;;;;5094382;28;20032;-80
2022/11/27 00:16:58;;;;;;;17.92;6.93;;;5.70;99.90;;;;;;5094444;28;20040;-78
2022/11/27 00:19:24;;;;;;;18.33;7.25;;;5.50;99.90;;;;;;5094334;28;20056;-79
2022/11/27 00:21:50;;;;;;;14.50;7.13;;;5.50;99.90;;;;;;5094226;28;20507;-79
2022/11/27 00:24:15;;;;;;;14.50;7.47;;;5.50;99.90;;;;;;5094100;28;20078;-79
2022/11/27 00:26:41;;;;;;;18.85;6.75;;;5.50;99.90;;;;;;5094248;28;20115;-79
2022/11/27 00:29:07;;;;;;;15.95;7.32;;;5.50;99.90;;;;;;5094025;28;20044;-78
2022/11/27 00:31:36;;;;;;;17.33;6.88;;;5.40;99.90;;;;;;5094183;28;20131;-79
2022/11/27 00:34:04;;;;;;;17.10;6.78;;;5.40;99.90;;;;;;5093933;28;20036;-79
2022/11/27 00:36:32;;;;;;;16.85;7.30;;;5.40;99.90;;;;;;5093961;28;20056;-79
2022/11/27 00:38:57;;;;;;;20.13;7.57;;;5.30;99.90;;;;;;5093635;28;20553;-79
2022/11/27 00:41:27;;;;;;;13.52;6.75;;;5.30;99.90;;;;;;5093796;28;20044;-79
2022/11/27 00:43:53;;;;;;;16.23;7.20;;;5.30;99.90;;;;;;5093810;28;20138;-79
2022/11/27 00:46:22;;;;;;;18.10;7.13;;;5.30;99.90;;;;;;5093821;28;20044;-79
2022/11/27 00:48:48;;;;;;;19.23;6.90;;;5.30;99.90;;;;;;5093681;28;20282;-79
2022/11/27 00:51:17;;;;;;;18.20;7.13;;;5.30;99.90;;;;;;5092503;28;20055;-79
2022/11/27 00:53:43;;;;;;;16.92;6.78;;;5.30;99.90;;;;;;5093524;28;20079;-79
2022/11/27 00:56:14;;;;;;;19.90;7.20;;;5.30;99.90;;;;;;5093546;28;20564;-79
2022/11/27 00:58:40;;;;;;;15.00;7.28;;;5.30;99.90;;;;;;5094138;28;20050;-78
2022/11/27 01:01:07;;;;;;;13.55;7.13;;;5.30;99.90;;;;;;5093980;28;20480;-78
2022/11/27 01:03:34;;;;;;;14.10;7.57;;;5.20;99.90;;;;;;5093862;28;20109;-78
2022/11/27 01:06:04;;;;;;;14.43;6.80;;;5.20;99.90;;;;;;5093614;28;20066;-78
2022/11/27 01:08:30;;;;;;;21.38;6.97;;;5.20;99.90;;;;;;5093859;28;20043;-79
2022/11/27 01:10:57;;;;;;;19.48;6.75;;;5.20;99.90;;;;;;5093596;28;20036;-78
2022/11/27 01:13:25;;;;;;;27.35;8.02;;;5.20;99.90;;;;;;5093763;28;20048;-78
2022/11/27 01:16:09;;;;;;;19.83;7.18;;;5.20;99.90;;;;;;5097778;28;20048;-79
2022/11/27 01:18:36;;;;;;;17.55;6.93;;;5.10;99.90;;;;;;5098040;28;20488;-79
2022/11/27 01:21:03;;;;;;;18.63;7.10;;;5.10;99.90;;;;;;5098117;28;20075;-79
2022/11/27 01:23:29;;;;;;;12.95;6.75;;;5.10;99.90;;;;;;5097576;28;20083;-79
2022/11/27 01:25:55;;;;;;;15.77;7.38;;;5.10;99.90;;;;;;5097311;28;20084;-79
2022/11/27 01:28:22;;;;;;;12.40;6.65;;;5.00;99.90;;;;;;5097512;28;20043;-78
2022/11/27 01:30:49;;;;;;;20.95;7.22;;;5.00;99.90;;;;;;5097569;28;20083;-79
2022/11/27 01:33:15;;;;;;;13.25;6.78;;;5.00;99.90;;;;;;5096398;28;20400;-78
2022/11/27 01:35:41;;;;;;;15.52;6.28;;;5.00;99.90;;;;;;5097522;28;20093;-79
2022/11/27 01:38:06;;;;;;;20.65;7.60;;;4.90;99.90;;;;;;5097000;28;20044;-78
2022/11/27 01:40:32;;;;;;;15.75;7.00;;;4.90;99.90;;;;;;5097416;28;20043;-78
2022/11/27 01:42:57;;;;;;;19.70;7.25;;;4.90;99.90;;;;;;5097308;28;20040;-77
2022/11/27 01:45:23;;;;;;;15.80;7.07;;;4.80;99.90;;;;;;5097277;28;20047;-78
2022/11/27 01:47:55;;;;;;;13.63;6.70;;;4.80;99.90;;;;;;5097178;28;20491;-78
2022/11/27 01:50:25;;;;;;;19.77;7.82;;;5.40;99.90;;;;;;5097176;28;20051;-79
2022/11/27 01:52:55;;;;;;;22.52;7.03;;;4.80;99.90;;;;;;5096882;28;20438;-79
2022/11/27 01:55:34;;;;;;;19.05;7.40;;;4.70;99.90;;;;;;5097027;28;20048;-77
2022/11/27 01:58:13;;;;;;;18.48;7.22;;;4.70;99.90;;;;;;5097165;28;20051;-78
2022/11/27 02:00:39;;;;;;;17.35;7.35;;;4.70;99.90;;;;;;5096778;28;20047;-78
2022/11/27 02:03:05;;;;;;;15.60;6.63;;;4.70;99.90;;;;;;5097104;28;20388;-78
2022/11/27 02:05:32;;;;;;;16.90;7.22;;;4.70;99.90;;;;;;5096894;28;20054;-79
2022/11/27 02:08:01;;;;;;;14.48;7.20;;;4.70;99.90;;;;;;5096754;28;20044;-78
2022/11/27 02:10:46;;;;;;;17.67;7.38;;;4.60;99.90;;;;;;5096672;28;20048;-79
2022/11/27 02:13:27;;;;;;;15.73;6.72;;;4.60;99.90;;;;;;5096679;28;20040;-78
2022/11/27 02:16:01;;;;;;;13.20;6.95;;;4.60;99.90;;;;;;5095526;28;20044;-79
2022/11/27 02:18:35;;;;;;;14.35;6.90;;;4.60;99.90;;;;;;5096737;28;20040;-79
2022/11/27 02:21:00;;;;;;;15.60;6.80;;;4.60;99.90;;;;;;5096697;28;20084;-78
2022/11/27 02:23:45;;;;;;;13.95;6.40;;;4.60;99.90;;;;;;5096357;28;20082;-78
2022/11/27 02:26:35;;;;;;;15.32;6.43;;;4.60;99.90;;;;;;5094869;28;20106;-78
2022/11/27 02:29:09;;;;;;;17.38;6.30;;;4.50;99.90;;;;;;5096453;28;20048;-79
2022/11/27 02:31:52;;;;;;;17.90;6.80;;;4.50;99.90;;;;;;5096404;28;20488;-78
2022/11/27 02:34:36;;;;;;;21.05;7.00;;;4.50;99.90;;;;;;5096470;28;20044;-79
2022/11/27 02:37:09;;;;;;;18.23;6.78;;;4.50;99.90;;;;;;5095234;28;20489;-77
2022/11/27 02:39:55;;;;;;;14.73;7.00;;;4.50;99.90;;;;;;5096339;28;20040;-78
2022/11/27 02:42:21;;;;;;;20.38;6.18;;;4.40;99.90;;;;;;5096242;28;20047;-78
2022/11/27 02:44:54;;;;;;;22.10;6.55;;;4.40;99.90;;;;;;5096215;28;20054;-78
2022/11/27 02:47:20;;;;;;;15.60;6.45;;;4.40;99.90;;;;;;5096582;28;20075;-79
2022/11/27 02:49:48;;;;;;;15.90;6.27;;;4.40;99.90;;;;;;5096062;28;20048;-78
2022/11/27 02:52:16;;;;;;;10.80;6.63;;;4.50;99.90;;;;;;5095720;28;20473;-78
2022/11/27 02:54:44;;;;;;;13.32;6.35;;;4.50;99.90;;;;;;5096068;28;20435;-78
2022/11/27 02:57:12;;;;;;;19.75;6.47;;;4.50;99.90;;;;;;5095659;28;20546;-78
2022/11/27 02:59:41;;;;;;;13.75;6.38;;;4.50;99.90;;;;;;5095415;28;20047;-78
2022/11/27 03:02:10;;;;;;;16.92;6.63;;;4.50;99.90;;;;;;5095703;28;20078;-79
2022/11/27 03:04:43;;;;;;;13.60;6.22;;;4.50;99.90;;;;;;5095887;28;20032;-79
2022/11/27 03:07:15;;;;;;;16.50;6.35;;;4.50;99.90;;;;;;5095708;28;20533;-79
2022/11/27 03:09:45;;;;;;;15.15;5.93;;;4.50;99.90;;;;;;5095726;28;20044;-79
2022/11/27 03:12:12;;;;;;;17.38;5.93;;;4.50;99.90;;;;;;5095455;28;20127;-77
2022/11/27 03:14:41;;;;;;;13.15;6.15;;;4.50;99.90;;;;;;5095484;28;20047;-78
2022/11/27 03:17:33;;;;;;;13.90;5.63;;;4.40;99.90;;;;;;5095210;28;20437;-79
2022/11/27 03:20:26;;;;;;;15.18;6.25;;;4.50;99.90;;;;;;5085038;28;20143;-78
2022/11/27 03:22:54;;;;;;;13.93;6.00;;;4.50;99.90;;;;;;5095300;28;20119;-78
2022/11/27 03:25:20;;;;;;;16.80;6.20;;;4.50;99.90;;;;;;5095076;28;20097;-79
2022/11/27 03:27:53;;;;;;;15.03;5.67;;;4.50;99.90;;;;;;5095135;28;20408;-78
2022/11/27 03:30:19;;;;;;;11.57;5.53;;;4.50;99.90;;;;;;5095486;28;20274;-79
2022/11/27 03:32:45;;;;;;;16.27;6.35;;;4.50;99.90;;;;;;5094930;28;20503;-78
2022/11/27 03:35:13;;;;;;;11.48;5.68;;;4.50;99.90;;;;;;5095054;28;20047;-79
2022/11/27 03:37:39;;;;;;;12.00;5.47;;;4.50;99.90;;;;;;5094278;28;20076;-78
2022/11/27 03:40:06;;;;;;;18.90;5.88;;;4.50;99.90;;;;;;5094075;28;20160;-79
2022/11/27 03:43:12;;;;;;;16.75;5.68;;;4.50;99.90;;;;;;5094962;28;20096;-79
2022/11/27 03:45:47;;;;;;;15.85;5.78;;;4.50;99.90;;;;;;5094919;28;20079;-78
2022/11/27 03:48:28;;;;;;;17.38;5.50;;;4.50;99.90;;;;;;5093815;28;20411;-79
2022/11/27 03:51:12;;;;;;;10.77;5.03;;;4.60;99.90;;;;;;5094861;28;20044;-79
2022/11/27 03:54:13;;;;;;;15.57;5.80;;;4.60;99.90;;;;;;5094659;28;20080;-78
2022/11/27 03:56:46;;;;;;;12.07;5.18;;;4.60;99.90;;;;;;5094802;28;20048;-79
2022/11/27 03:59:26;;;;;;;9.70;5.30;;;4.60;99.90;;;;;;5094811;28;20059;-79
2022/11/27 04:01:51;;;;;;;16.27;5.82;;;4.60;99.90;;;;;;5094818;28;20058;-79
2022/11/27 04:04:17;;;;;;;10.82;5.63;;;4.50;99.90;;;;;;5094668;28;20040;-78
2022/11/27 04:06:43;;;;;;;10.90;5.47;;;4.50;99.90;;;;;;5094506;28;20052;-79
2022/11/27 04:09:08;;;;;;;18.30;6.40;;;4.50;99.90;;;;;;5095030;28;20043;-79
2022/11/27 04:11:34;;;;;;;7.07;5.47;;;4.50;99.90;;;;;;5094472;28;20483;-79
2022/11/27 04:13:59;;;;;;;21.02;5.80;;;4.50;99.90;;;;;;5094299;28;20131;-78
2022/11/27 04:16:25;;;;;;;19.58;5.55;;;4.50;99.90;;;;;;5094420;28;20493;-78
2022/11/27 04:18:51;;;;;;;10.07;5.40;;;4.50;99.90;;;;;;5094477;28;20127;-78
2022/11/27 04:21:16;;;;;;;14.27;5.38;;;4.50;99.90;;;;;;5094014;28;20484;-79
2022/11/27 04:23:43;;;;;;;15.25;5.28;;;4.50;99.90;;;;;;5092957;28;20043;-79
2022/11/27 04:26:08;;;;;;;11.88;5.00;;;4.50;99.90;;;;;;5094462;28;20492;-79
2022/11/27 04:28:34;;;;;;;9.75;5.30;;;4.50;99.90;;;;;;5093970;28;20044;-78
2022/11/27 04:31:00;;;;;;;14.18;5.40;;;4.50;99.90;;;;;;5094262;28;20040;-78
2022/11/27 04:33:25;;;;;;;14.75;5.53;;;4.50;99.90;;;;;;5093833;28;20549;-78
2022/11/27 04:35:51;;;;;;;9.55;5.75;;;4.50;99.90;;;;;;5094142;28;20122;-77
2022/11/27 04:38:18;;;;;;;14.02;5.13;;;4.50;99.90;;;;;;5093985;28;20044;-77
2022/11/27 04:40:44;;;;;;;;;;;4.50;99.90;;;;;;5094423;28;20044;-78
2022/11/27 04:43:10;;;;;;;10.55;5.30;;;4.50;99.90;;;;;;5093940;28;19930;-78
2022/11/27 04:45:35;;;;;;;13.48;5.07;;;4.50;99.90;;;;;;5094000;28;20094;-78
2022/11/27 04:48:02;;;;;;;11.77;4.70;;;4.50;99.90;;;;;;5093920;28;20498;-78
2022/11/27 04:50:28;;;;;;;13.17;4.73;;;4.60;99.90;;;;;;5093968;28;20123;-78
2022/11/27 04:52:54;;;;;;;15.02;4.38;;;4.50;99.90;;;;;;5093809;28;20032;-78
2022/11/27 04:55:19;;;;;;;11.70;4.90;;;4.50;99.90;;;;;;5093798;28;20048;-79
2022/11/27 04:57:45;;;;;;;10.70;4.97;;;4.50;99.90;;;;;;5093585;28;20395;-78
2022/11/27 05:00:11;;;;;;;13.32;4.80;;;4.50;99.90;;;;;;5093707;28;20048;-79
2022/11/27 05:02:37;;;;;;;16.20;4.88;;;4.50;99.90;;;;;;5093718;28;20484;-79
2022/11/27 05:05:03;;;;;;;10.20;4.70;;;4.50;99.90;;;;;;5093625;28;20093;-78
2022/11/27 05:07:29;;;;;;;12.18;4.70;;;4.60;99.90;;;;;;5093702;28;20046;-78
2022/11/27 05:09:54;;;;;;;9.27;4.72;;;4.60;99.90;;;;;;5093598;28;20399;-78
2022/11/27 05:12:20;;;;;;;10.77;4.40;;;4.60;99.90;;;;;;5092208;28;20050;-78
2022/11/27 05:14:45;;;;;;;7.60;4.78;;;4.60;99.90;;;;;;5093476;28;20087;-79
2022/11/27 05:17:11;;;;;;;12.07;4.72;;;4.60;99.90;;;;;;5093326;28;20122;-79
2022/11/27 05:19:37;;;;;;;11.82;4.75;;;4.60;99.90;;;;;;5093322;28;20066;-79
2022/11/27 05:22:02;;;;;;;8.88;4.57;;;4.60;99.90;;;;;;5093526;28;20044;-78
2022/11/27 05:24:28;;;;;;;9.77;4.80;;;4.60;99.90;;;;;;5093992;28;20101;-79
2022/11/27 05:26:55;;;;;;;12.15;4.20;;;4.60;99.90;;;;;;5093866;28;20469;-78
2022/11/27 05:29:22;;;;;;;14.13;4.78;;;4.60;99.90;;;;;;5093461;28;20047;-78
2022/11/27 05:31:47;;;;;;;;;;;4.60;99.90;;;;;;5093795;28;20040;-79
2022/11/27 05:34:13;;;;;;;14.55;4.50;;;5.10;99.90;;;;;;5093543;28;19942;-78
2022/11/27 05:36:39;;;;;;;9.63;5.35;;;4.60;99.90;;;;;;5093216;28;20042;-78
2022/11/27 05:39:06;;;;;;;10.23;4.47;;;4.50;99.90;;;;;;5093455;28;20484;-80
2022/11/27 05:41:33;;;;;;;10.00;4.75;;;4.50;99.90;;;;;;5093420;28;20437;-78
2022/11/27 05:43:59;;;;;;;11.38;5.18;;;4.60;99.90;;;;;;5093433;28;20130;-78
2022/11/27 05:46:24;;;;;;;12.98;4.50;;;4.50;99.90;;;;;;5093094;28;20170;-79
2022/11/27 05:48:50;;;;;;;15.27;4.90;;;4.50;99.90;;;;;;5093367;28;20044;-79
2022/11/27 05:51:16;;;;;;;10.95;4.43;;;4.50;99.90;;;;;;5092908;28;20044;-79
2022/11/27 05:53:42;;;;;;;12.60;4.90;;;4.50;99.90;;;;;;5093782;28;20396;-78
2022/11/27 05:56:12;;;;;;;8.88;4.90;;;4.50;99.90;;;;;;5093171;28;20048;-79
2022/11/27 05:58:38;;;;;;;9.43;4.72;;;4.50;99.90;;;;;;5093153;28;20125;-78
2022/11/27 06:01:05;;;;;;;15.90;5.70;;;4.50;99.90;;;;;;5095906;28;20044;-78
2022/11/27 06:03:31;;;;;;;9.43;4.82;;;4.50;99.90;;;;;;5096972;28;20441;-78
2022/11/27 06:05:57;;;;;;;13.23;5.68;;;4.50;99.90;;;;;;5096982;28;20121;-78
2022/11/27 06:08:22;;;;;;;12.60;4.25;;;4.50;99.90;;;;;;5096977;28;20047;-78
2022/11/27 06:10:48;;;;;;;14.13;5.15;;;4.50;99.90;;;;;;5096826;28;20048;-79
2022/11/27 06:13:14;;;;;;;11.33;5.40;;;4.50;99.90;;;;;;5096746;28;20040;-79
2022/11/27 06:15:41;;;;;;;11.40;4.88;;;4.50;99.90;;;;;;5096677;28;20089;-78
2022/11/27 06:18:06;;;;;;;11.30;4.75;;;4.40;99.90;;;;;;5096852;28;20044;-78
2022/11/27 06:20:32;;;;;;;12.35;4.57;;;4.40;99.90;;;;;;5096569;28;20054;-78
2022/11/27 06:22:58;;;;;;;10.73;4.93;;;4.40;99.90;;;;;;5097011;28;20036;-78
2022/11/27 06:25:24;;;;;;;10.13;5.25;;;4.40;99.90;;;;;;5096714;28;20109;-79
2022/11/27 06:27:51;;;;;;;10.95;5.32;;;4.40;99.90;;;;;;5096526;28;20043;-79
2022/11/27 06:30:17;;;;;;;13.32;5.45;;;4.40;99.90;;;;;;5096553;28;20536;-79
2022/11/27 06:32:43;;;;;;;14.60;5.15;;;4.40;99.90;;;;;;5096227;28;20182;-79
2022/11/27 06:35:09;;;;;;;10.75;4.90;;;4.40;99.90;;;;;;5096368;28;20169;-79
2022/11/27 06:37:34;;;;;;;10.15;4.78;;;4.40;99.90;;;;;;5095752;28;20082;-79
2022/11/27 06:40:00;;;;;;;10.05;4.88;;;4.40;99.90;;;;;;5096570;28;20104;-78
2022/11/27 06:42:29;;;;;;;14.45;5.32;;;4.40;99.90;;;;;;5096524;28;20051;-77
2022/11/27 06:44:55;;;;;;;12.18;5.35;;;4.40;99.90;;;;;;5095902;28;20500;-78
2022/11/27 06:47:20;;;;;;;17.23;5.20;;;4.40;99.90;;;;;;5096184;28;20102;-78
2022/11/27 06:49:46;;;;;;;7.88;4.95;;;4.40;99.90;;;;;;5096118;28;20094;-79
2022/11/27 06:52:11;;;;;;;7.05;4.55;;;4.50;99.90;;;;;;5095960;28;20411;-78
2022/11/27 06:54:37;;;;;;;11.98;5.28;;;4.50;99.90;;;;;;5094843;28;20048;-77
2022/11/27 06:57:03;;;;;;;11.68;4.93;;;4.50;99.90;;;;;;5096268;28;20083;-78
2022/11/27 06:59:28;;;;;;;10.55;4.95;;;4.50;99.90;;;;;;5095875;28;20477;-78
2022/11/27 07:01:54;;;;;;;8.00;4.90;;;4.50;99.90;;;;;;5094881;28;20051;-84
2022/11/27 07:04:20;;;;;;;9.82;5.22;;;4.50;99.90;;;;;;5094475;28;20403;-78
2022/11/27 07:06:45;;;;;;;10.50;5.40;;;4.50;99.90;;;;;;5095757;28;20040;-82
2022/11/27 07:09:11;;;;;;;9.50;5.05;;;4.50;99.90;;;;;;5095926;28;20048;-77
2022/11/27 07:11:38;;;;;;;9.05;5.28;;;4.50;99.90;;;;;;5094742;28;20097;-78
2022/11/27 07:14:05;;;;;;;8.20;5.10;;;4.50;99.90;;;;;;5095474;28;20483;-84
2022/11/27 07:16:33;;;;;;;8.48;4.45;;;4.50;99.90;;;;;;5095420;28;20529;-76
2022/11/27 07:19:09;;;;;;;13.48;5.40;;;4.50;99.90;;;;;;5095328;28;20150;-77
2022/11/27 07:21:36;;;;;;;10.40;5.13;;;4.50;99.90;;;;;;5095877;28;20070;-76
2022/11/27 07:24:02;;;;;;;13.90;5.63;;;4.50;99.90;;;;;;5095235;28;20056;-77
2022/11/27 07:26:29;;;;;;;12.23;5.68;;;4.50;99.90;;;;;;5095618;28;20105;-76
2022/11/27 07:28:55;;;;;;;11.73;5.25;;;4.50;99.90;;;;;;5095460;28;20044;-76
2022/11/27 07:31:26;;;;;;;7.83;4.90;;;4.50;99.90;;;;;;5094927;28;20476;-82
2022/11/27 07:33:52;;;;;;;11.25;5.45;;;4.50;99.90;;;;;;5094603;28;20040;-79
2022/11/27 07:36:23;;;;;;;;;;;4.50;99.90;;;;;;5095352;28;20499;-78
2022/11/27 07:38:49;;;;;;;9.73;5.35;;;4.50;99.90;;;;;;5090060;28;19951;-73
2022/11/27 07:41:15;;;;;;;9.75;5.43;;;4.50;99.90;;;;;;5088607;28;20089;-78
2022/11/27 07:43:42;;;;;;;10.30;6.17;;;4.50;99.90;;;;;;5095093;28;20161;-80
2022/11/27 07:46:20;;;;;;;15.55;6.32;;;4.50;99.90;;;;;;5094511;28;20043;-79
2022/11/27 07:48:46;;;;;;;13.68;7.03;;;4.60;99.90;;;;;;5110640;28;20047;-75
2022/11/27 07:51:14;;;;;;;10.45;5.45;;;4.60;99.90;;;;;;5096654;28;20044;-76
2022/11/27 07:53:40;;;;;;;10.10;5.20;;;4.60;99.90;;;;;;5094397;28;20036;-78
2022/11/27 07:56:07;;;;;;;10.38;5.53;;;4.60;99.90;;;;;;5094755;28;20047;-77
2022/11/27 07:58:33;;;;;;;13.57;5.70;;;4.60;99.90;;;;;;5094663;28;20388;-77
2022/11/27 08:00:58;;;;;;;7.82;5.20;;;5.20;99.90;;;;;;5093602;28;20123;-79
2022/11/27 08:03:24;;;;;;;12.80;4.97;;;4.60;99.90;;;;;;5093767;28;20166;-77
2022/11/27 08:05:50;;;;;;;15.63;5.28;;;4.60;99.90;;;;;;5094161;28;20048;-77
2022/11/27 08:08:16;;;;;;;9.55;5.65;;;4.60;99.90;;;;;;5094607;28;20040;-80
2022/11/27 08:10:41;;;;;;;9.82;5.65;;;4.60;99.90;;;;;;5110316;28;20495;-80
2022/11/27 08:13:07;;;;;;;13.30;5.22;;;4.60;99.90;;;;;;5089707;28;20040;-77
2022/11/27 08:15:33;;;;;;;12.48;5.30;;;4.60;99.90;;;;;;5074537;28;20047;-79
2022/11/27 08:18:07;;;;;;;9.80;5.37;;;4.70;99.90;;;;;;5093268;28;20036;-79
2022/11/27 08:20:32;;;;;;;9.38;5.07;;;4.70;99.90;;;;;;5092239;28;20048;-79
2022/11/27 08:22:58;;;;;;;14.63;5.75;;;4.80;99.90;;;;;;5090440;28;20540;-76
2022/11/27 08:25:24;;;;;;;11.43;5.85;;;4.80;99.90;;;;;;5093395;28;20058;-76
2022/11/27 08:27:49;;;;;;;8.50;5.07;;;4.80;99.90;;;;;;5093182;28;20220;-81
2022/11/27 08:30:15;;;;;;;8.25;5.35;;;4.80;99.90;;;;;;5093365;28;20079;-78
2022/11/27 08:32:42;;;;;;;13.57;5.70;;;4.90;99.90;;;;;;5093208;28;20388;-74
2022/11/27 08:35:09;;;;;;;11.82;5.30;;;4.90;99.90;;;;;;5091957;28;20051;-76
2022/11/27 08:37:35;;;;;;;11.23;5.90;;;4.90;99.90;;;;;;5092639;28;20048;-78
2022/11/27 08:40:01;;;;;;;12.13;5.72;;;4.90;99.90;;;;;;5093952;28;20044;-81
2022/11/27 08:42:26;;;;;;;11.45;5.90;;;5.00;99.90;;;;;;5094067;28;20481;-78
2022/11/27 08:44:52;;;;;;;9.75;5.53;;;5.00;99.90;;;;;;5094384;28;20090;-78
2022/11/27 08:47:17;;;;;;;11.77;5.60;;;4.50;99.90;;;;;;5094237;28;20066;-81
2022/11/27 08:49:43;;;;;;;12.18;5.47;;;5.00;99.90;;;;;;5093941;28;20131;-81
2022/11/27 08:52:10;;;;;;;15.73;6.20;;;5.10;99.90;;;;;;5091598;28;20039;-79
2022/11/27 08:54:35;;;;;;;9.55;5.82;;;5.10;99.90;;;;;;5093196;28;20071;-77
2022/11/27 08:57:02;;;;;;;13.10;7.13;;;5.10;99.90;;;;;;5092425;28;20051;-78
2022/11/27 08:59:27;;;;;;;11.05;6.38;;;5.10;99.90;;;;;;5093378;28;20039;-79
2022/11/27 09:01:53;;;;;;;10.35;6.28;;;5.20;99.90;;;;;;5075378;28;20503;-78
2022/11/27 09:04:18;;;;;;;12.60;6.00;;;5.20;99.90;;;;;;5075557;28;20086;-80
2022/11/27 09:06:44;;;;;;;10.45;5.68;;;5.20;99.90;;;;;;5075622;28;20536;-78
2022/11/27 09:09:10;;;;;;;12.80;6.32;;;5.30;99.90;;;;;;5093462;28;20059;-79
2022/11/27 09:11:36;;;;;;;11.45;5.38;;;5.30;99.90;;;;;;5094479;28;20403;-77
2022/11/27 09:14:03;;;;;;;12.57;5.47;;;5.30;99.90;;;;;;5092240;28;20083;-78
2022/11/27 09:16:29;;;;;;;;;;;5.40;99.90;;;;;;5092934;28;20047;-78
2022/11/27 09:18:56;;;;;;;10.43;5.72;;;5.40;99.90;;;;;;5093400;28;19927;-78
2022/11/27 09:21:22;;;;;;;12.30;5.93;;;5.40;99.90;;;;;;5075642;28;20462;-79
2022/11/27 09:23:52;;;;;;;10.88;5.78;;;5.40;99.90;;;;;;5092104;28;20063;-79
2022/11/27 09:26:18;;;;;;;12.35;5.43;;;5.40;99.90;;;;;;5091871;28;20052;-79
2022/11/27 09:28:44;;;;;;;9.05;5.55;;;5.40;99.90;;;;;;5092468;28;20567;-77
2022/11/27 09:31:12;;;;;;;9.80;5.40;;;5.40;99.90;;;;;;5091652;28;20083;-78
2022/11/27 09:33:39;;;;;;;11.93;5.93;;;5.50;99.90;;;;;;5091679;28;20040;-78
2022/11/27 09:36:26;;;;;;;14.88;5.75;;;5.50;99.90;;;;;;5095874;28;20365;-80
2022/11/27 09:38:52;;;;;;;13.40;5.50;;;5.50;99.90;;;;;;5095051;28;20059;-80
2022/11/27 09:41:40;;;;;;;10.40;5.50;;;5.50;99.90;;;;;;5079242;28;20044;-79
2022/11/27 09:44:34;;;;;;;9.40;5.70;;;5.40;99.90;;;;;;5079557;28;20035;-80
2022/11/27 09:47:27;;;;;;;9.82;5.55;;;5.40;99.90;;;;;;5096970;28;20131;-78
2022/11/27 09:50:27;;;;;;;11.15;5.40;;;5.40;99.90;;;;;;5059539;28;20056;-78
2022/11/27 09:53:21;;;;;;;8.90;5.70;;;5.40;99.90;;;;;;5096929;28;20044;-79
2022/11/27 09:55:51;;;;;;;10.48;6.18;;;5.40;99.90;;;;;;5090581;28;20182;-79
2022/11/27 09:58:40;;;;;;;9.75;5.90;;;5.40;99.90;;;;;;5097124;28;20051;-77
2022/11/27 10:01:13;;;;;;;10.10;5.63;;;5.40;99.90;;;;;;5095601;28;20044;-79
2022/11/27 10:03:44;;;;;;;11.70;5.70;;;5.30;99.90;;;;;;5098509;28;20051;-78
2022/11/27 10:06:42;;;;;;;11.15;6.22;;;5.30;99.90;;;;;;5095725;28;20087;-77
2022/11/27 10:09:16;;;;;;;13.65;6.03;;;5.30;99.90;;;;;;5097011;28;20476;-80
2022/11/27 10:11:55;;;;;;;12.95;6.47;;;5.30;99.90;;;;;;5078338;28;20055;-78
2022/11/27 10:14:41;;;;;;;13.85;6.20;;;5.30;99.90;;;;;;5078477;28;20044;-76
2022/11/27 10:17:21;;;;;;;13.23;6.95;;;5.30;99.90;;;;;;5095811;28;20101;-78
2022/11/27 10:20:10;;;;;;;16.48;9.68;;;5.30;99.90;;;;;;5096019;28;20047;-78
2022/11/27 10:23:00;;;;;;;14.65;6.78;;;5.30;99.90;;;;;;5098183;28;20122;-78
2022/11/27 10:25:37;;;;;;;15.82;6.97;;;5.30;99.90;;;;;;5096560;28;20067;-82
2022/11/27 10:28:37;;;;;;;13.38;8.95;;;5.30;99.90;;;;;;5103264;28;20044;-81
2022/11/27 10:31:13;;;;;;;13.65;7.20;;;5.30;99.90;;;;;;5095261;28;20056;-77
2022/11/27 10:33:53;;;;;;;13.57;8.60;;;5.30;99.90;;;;;;5094871;28;20153;-75
2022/11/27 10:36:30;;;;;;;18.15;10.65;;;5.30;99.90;;;;;;5095564;28;20193;-77
2022/11/27 10:38:58;;;;;;;31.40;16.92;;;5.30;99.90;;;;;;5095478;28;20055;-76
2022/11/27 10:41:29;;;;;;;16.48;8.25;;;5.30;99.90;;;;;;5094877;28;20048;-76
2022/11/27 10:43:59;;;;;;;14.50;7.85;;;5.30;99.90;;;;;;5095034;28;20079;-76
2022/11/27 10:46:28;;;;;;;13.57;7.93;;;5.30;99.90;;;;;;5077499;28;20483;-77
2022/11/27 10:48:54;;;;;;;13.40;8.35;;;5.30;99.90;;;;;;5096355;28;20048;-76
2022/11/27 10:51:31;;;;;;;12.70;8.57;;;5.30;99.90;;;;;;5096121;28;20055;-76
2022/11/27 10:54:00;;;;;;;13.40;8.53;;;5.30;99.90;;;;;;5096105;28;20086;-77
2022/11/27 10:56:41;;;;;;;14.25;7.65;;;5.30;99.90;;;;;;5095962;28;20085;-78
2022/11/27 10:59:30;;;;;;;18.25;8.13;;;5.30;99.90;;;;;;5096331;28;20435;-76
2022/11/27 11:01:57;;;;;;;27.13;10.48;;;5.40;99.90;;;;;;5095488;28;20052;-74
2022/11/27 11:04:27;;;;;;;;;;;5.40;99.90;;;;;;5095029;28;20036;-76
2022/11/27 11:06:53;;;;;;;16.77;8.55;;;5.40;99.90;;;;;;5095814;28;19920;-77
2022/11/27 11:09:24;;;;;;;15.70;9.18;;;5.40;99.90;;;;;;5095754;28;20052;-76
2022/11/27 11:11:50;;;;;;;14.07;7.70;;;5.40;99.90;;;;;;5095765;28;20059;-79
2022/11/27 11:14:25;;;;;;;15.00;7.60;;;5.40;99.90;;;;;;5095868;28;20040;-77
2022/11/27 11:16:53;;;;;;;18.60;8.02;;;5.40;99.90;;;;;;5095745;28;20054;-76
2022/11/27 11:19:28;;;;;;;15.35;8.13;;;5.40;99.90;;;;;;5095563;28;20043;-75
2022/11/27 11:21:54;;;;;;;17.40;7.40;;;5.40;99.90;;;;;;5095627;28;20055;-77
2022/11/27 11:24:26;;;;;;;15.45;8.15;;;5.50;99.90;;;;;;5095459;28;20052;-78
2022/11/27 11:27:18;;;;;;;14.20;9.23;;;5.50;99.90;;;;;;5095380;28;20109;-75
2022/11/27 11:29:58;;;;;;;12.45;8.85;;;5.50;99.90;;;;;;5096353;28;20472;-77
2022/11/27 11:32:28;;;;;;;13.95;7.75;;;5.50;99.90;;;;;;5096892;28;20085;-78
2022/11/27 11:34:58;;;;;;;12.05;7.97;;;5.50;99.90;;;;;;5079013;28;20128;-78
2022/11/27 11:37:29;;;;;;;12.73;8.05;;;5.50;99.90;;;;;;5095189;28;20489;-76
2022/11/27 11:39:56;;;;;;;16.13;7.70;;;5.50;99.90;;;;;;5095164;28;20127;-77
2022/11/27 11:42:26;;;;;;;13.90;8.30;;;5.50;99.90;;;;;;5095027;28;20040;-77
2022/11/27 11:45:09;;;;;;;10.88;7.55;;;5.50;99.90;;;;;;5094814;28;20437;-76
2022/11/27 11:47:43;;;;;;;12.50;7.95;;;5.50;99.90;;;;;;5095048;28;20055;-76
2022/11/27 11:50:12;;;;;;;16.80;8.60;;;5.60;99.90;;;;;;5094968;28;20044;-77
2022/11/27 11:52:50;;;;;;;14.65;7.50;;;5.60;99.90;;;;;;5094721;28;20117;-76
2022/11/27 11:55:18;;;;;;;;;;;5.60;99.90;;;;;;5095466;28;20499;-76
2022/11/27 11:58:25;;;;;;;11.98;7.60;;;5.60;99.90;;;;;;5094079;28;19919;-75
2022/11/27 12:01:03;;;;;;;10.90;7.25;;;5.70;99.90;;;;;;5073865;28;20044;-75
2022/11/27 12:03:48;;;;;;;12.45;7.32;;;5.70;99.90;;;;;;5094586;28;20047;-77
2022/11/27 12:06:44;;;;;;;15.32;7.78;;;5.70;99.90;;;;;;5094669;28;20055;-81
2022/11/27 12:09:24;;;;;;;11.00;6.88;;;5.70;99.90;;;;;;5093627;28;20438;-81
2022/11/27 12:12:12;;;;;;;13.73;8.50;;;5.80;99.90;;;;;;5094605;28;20051;-81
2022/11/27 12:14:49;;;;;;;18.20;7.53;;;5.80;99.90;;;;;;5094733;28;20067;-79
2022/11/27 12:17:27;;;;;;;17.20;7.95;;;5.80;99.90;;;;;;5094566;28;20476;-76
2022/11/27 12:20:23;;;;;;;11.57;7.28;;;5.80;99.90;;;;;;5094634;28;20395;-77
2022/11/27 12:23:22;;;;;;;13.48;7.57;;;5.80;99.90;;;;;;5094086;28;20472;-77
2022/11/27 12:26:03;;;;;;;13.65;8.10;;;5.80;99.90;;;;;;5094174;28;20056;-77
2022/11/27 12:28:57;;;;;;;13.65;7.78;;;5.80;99.90;;;;;;5094255;28;20048;-77
2022/11/27 12:31:50;;;;;;;14.50;7.78;;;5.80;99.90;;;;;;5094440;28;20052;-77
2022/11/27 12:34:27;;;;;;;15.60;7.57;;;5.90;99.90;;;;;;5094109;28;20048;-78
2022/11/27 12:37:18;;;;;;;14.63;8.20;;;5.80;99.90;;;;;;5094196;28;20048;-77
2022/11/27 12:39:56;;;;;;;15.40;9.18;;;5.90;99.90;;;;;;5094413;28;20040;-77
2022/11/27 12:42:33;;;;;;;13.25;9.07;;;5.90;99.90;;;;;;5094437;28;20040;-77
2022/11/27 12:45:00;;;;;;;15.98;8.50;;;5.90;99.90;;;;;;5093969;28;20044;-77
2022/11/27 12:47:28;;;;;;;;;;;5.90;99.90;;;;;;5094333;28;20044;-78
2022/11/27 12:50:06;;;;;;;12.45;7.85;;;5.90;99.90;;;;;;5093889;28;19920;-78
2022/11/27 12:52:39;;;;;;;;;;;5.90;99.90;;;;;;5093124;28;20389;-78
2022/11/27 12:55:11;;;;;;;16.80;8.77;;;5.90;99.90;;;;;;5094193;28;20015;-77
2022/11/27 12:57:55;;;;;;;13.10;8.10;;;5.90;99.90;;;;;;5093795;28;20373;-77
2022/11/27 13:00:24;;;;;;;13.35;8.25;;;5.90;99.90;;;;;;5093645;28;20487;-77
2022/11/27 13:03:05;;;;;;;16.13;8.23;;;5.90;99.90;;;;;;5093753;28;20050;-76
2022/11/27 13:05:53;;;;;;;16.67;9.00;;;5.90;99.90;;;;;;5093973;28;20040;-78
2022/11/27 13:08:21;;;;;;;;;;;5.90;99.90;;;;;;5083398;28;20056;-77
2022/11/27 13:10:51;;;;;;;15.68;8.40;;;5.90;99.90;;;;;;5092878;28;19924;-77